This is the latest recevied weather packets stored in our database for station/object OE3MHU-12. If no packets are shown the sender has not sent any weather packets the latest 10 day(s).
| Time | Temp. | Humidity | Pressure | Rain* | Wind** | Luminosity | Snow |
|---|---|---|---|---|---|---|---|
| 1777839943 | 16.67° C | 52% | 1012.9 hPa | 0 mm | - | - | - |
| 1777838143 | 17.22° C | 49% | 1013 hPa | 0 mm | - | - | - |
| 1777836343 | 18.33° C | 47% | 1013 hPa | 0 mm | - | - | - |
| 1777834543 | 18.89° C | 46% | 1013 hPa | 0 mm | - | - | - |
| 1777832743 | 19.44° C | 45% | 1012.8 hPa | 0 mm | - | - | - |
| 1777825544 | 23.89° C | 36% | 1012.9 hPa | 0 mm | - | - | - |
| 1777823744 | 24.44° C | 36% | 1013 hPa | 0 mm | - | - | - |
| 1777821944 | 25° C | 35% | 1013 hPa | 0 mm | - | - | - |
| 1777820144 | 25.56° C | 34% | 1013.4 hPa | 0 mm | - | - | - |
| 1777807545 | 23.33° C | 37% | 1015.8 hPa | 0 mm | - | - | - |
| 1777805745 | 23.33° C | 39% | 1016.2 hPa | 0 mm | - | - | - |
| 1777803945 | 22.22° C | 40% | 1016.5 hPa | 0 mm | - | - | - |
| 1777802145 | 21.67° C | 45% | 1016.9 hPa | 0 mm | - | - | - |
| 1777800345 | 20.56° C | 48% | 1017.2 hPa | 0 mm | - | - | - |
| 1777798545 | 19.44° C | 50% | 1017.3 hPa | 0 mm | - | - | - |
| 1777796745 | 18.33° C | 49% | 1017.3 hPa | 0 mm | - | - | - |
| 1777793145 | 17.78° C | 51% | 1017.5 hPa | 0 mm | - | - | - |
| 1777791345 | 16.11° C | 53% | 1017.5 hPa | 0 mm | - | - | - |
| 1777787746 | 10° C | 68% | 1017.6 hPa | 0 mm | - | - | - |
| 1777785946 | 4.44° C | 82% | 1017.5 hPa | 0 mm | - | - | - |
| 1777784146 | 2.78° C | 83% | 1017.6 hPa | 0 mm | - | - | - |
| 1777782346 | 1.67° C | 82% | 1017.6 hPa | 0 mm | - | - | - |
| 1777778746 | 2.22° C | 80% | 1017.3 hPa | 0 mm | - | - | - |
| 1777776946 | 2.22° C | 79% | 1017.3 hPa | 0 mm | - | - | - |
| 1777775146 | 2.78° C | 78% | 1017.6 hPa | 0 mm | - | - | - |
* Rain latest hour (hover to see other rain measurements)
** Current wind speed in m/s (hover to see current wind gust speed)